Casper, WY

4:43 AM MDT on August 03, 2015 (GMT -0600)
RAWS | | Change Station
CLOSE
Current Station
Personal Weather Station
Location: Casper, WY
Elevation: 7740 ft
Nearby Weather Stations

Elev 7740 ft 42.71 °N, 106.35 °W | Updated 51 minutes ago

Clear
Clear
62.0 °F
Feels Like 62.0 °F
N
0.0
Wind Variable Wind from North
Gusts 6.0 mph

Today
High -- | Low -- °F
--% Chance of Precip.
Yesterday
High -- | Low -- °F
Precip. -- in
5:58 AM 8:23 PM
Waning Gibbous, 87% visible
Pressure 29.86 in
Visibility 10.0 miles
Clouds Clear
Dew Point 40.0 °F
Humidity 45%
Rainfall in
Snow Depth Not available.
UV 0 out of 12
Pollen 7.10 out of 12
Air Quality Not available.
Flu Activity Not available.
METAR KCPR 030953Z 35006KT 10SM CLR 14/10 A3008 RMK AO2 SLP109 T01440100

More Conditions Fewer Conditions

Pressure 29.86 in
Visibility 10.0 miles
Clouds Clear
Dew Point 40.0 °F
Humidity 45%
Rainfall in
Snow Depth Not available.
UV 0 out of 12
Pollen 7.10 out of 12
Air Quality Not available.
Flu Activity Not available.
METAR KCPR 030953Z 35006KT 10SM CLR 14/10 A3008 RMK AO2 SLP109 T01440100

More Conditions Fewer Conditions

10-Day Weather Forecast

×

Almanac

Astronomy

Aug. 03, 2015 Rise Set
Actual Time
Civil Twilight
Nautical Twilight
Astronomical Twilight
Moon
Length of Visible Light
Length of Day
Tomorrow will be .
, % of the Moon is Illuminated

Today's Extremes

State Highs State Lows

Community

WunderPhotos

Upload Photos

1,843,610 photos uploaded!

WunderBlogs® & News

Nearby

Air Quality

  Air Quality AQ Index Pollutant
Not available.

Snow Depth

Station Depth Elevation

Earthquake Activity

City Distance Mag. Time & Date
Minimum magnitude displayed is 2.5.

Coastal Water Temperatures

Place Temperature

Stations

Nearby Weather Stations

Station Location Temp. Windchill Dew Point Humidity Wind Precip. Elev Updated Type